Latest Weather Observations for Clare

IDS60801

Issued at 1:32 pm CST Saturday 25 April 2015 (issued every 30 minutes, with the page automatically refreshed every 10 minutes)

About weather observations | Map of weather stations | Latest weather observations for SA | Other Formats
Station Details ID: 021131 Name: CLARE HIGH SCHOOL Lat: -33.82 Lon: 138.59 Height: 395.0 m
Data from the previous 72 hours. | See also: Recent months at Clare
Date/Time
CST
Temp
°C
App
Temp
°C
Dew
Point
Rel
Hum
%
Delta-T
°C
Wind Press
QNH
hPa
Press
MSL
hPa
Rain
since 9 am
mm
Dir
 
Spd
km/h
Gust
km/h
Spd
kts
Gust
kts
25/01:30pm 13.3 9.8 8.6 73 2.4 SW 17 28 9 15 1014.9 - 1.4
25/01:00pm 12.3 10.3 11.4 94 0.5 SW 13 20 7 11 1015.0 - 1.4
25/12:30pm 12.2 9.0 8.5 78 1.9 WSW 15 26 8 14 1014.8 - 0.0
25/12:00pm 13.5 9.5 6.8 64 3.3 S 17 26 9 14 1014.9 1014.3 0.0
25/11:30am 12.8 8.8 6.8 67 2.9 S 17 26 9 14 1014.8 - 0.0
25/11:00am 12.3 8.3 6.6 68 2.8 S 17 26 9 14 1014.9 - 0.0
25/10:30am 11.6 7.6 6.5 71 2.5 S 17 28 9 15 1014.7 - 0.0
25/10:00am 10.5 6.6 7.0 79 1.7 S 17 28 9 15 1014.4 - 0.0
25/09:30am 10.3 7.1 6.8 79 1.7 S 13 26 7 14 1014.0 - 0.0
25/09:00am 9.2 5.2 6.6 84 1.2 S 17 30 9 16 1013.5 1012.8 23.6
25/08:30am 8.0 4.1 6.9 93 0.5 S 17 32 9 17 1012.8 - 23.6
25/08:00am 7.5 3.6 6.9 96 0.3 SSW 17 28 9 15 1011.9 - 23.6
25/07:30am 7.4 3.2 7.3 99 0.0 SSW 19 32 10 17 1010.6 - 23.6
25/07:00am 7.2 3.3 7.1 99 0.0 SSW 17 22 9 12 1009.5 - 23.6
25/06:30am 7.0 3.4 6.6 97 0.2 SSW 15 24 8 13 1008.7 - 23.6
25/06:00am 7.4 3.1 7.1 98 0.1 SSW 19 32 10 17 1007.9 1007.2 23.6
25/05:30am 7.8 3.5 7.7 99 0.0 SW 20 46 11 25 1006.9 - 23.6
25/05:00am 8.4 4.2 8.3 99 0.0 SW 20 35 11 19 1005.9 - 23.4
25/04:30am 8.0 3.3 7.9 99 0.0 WSW 22 37 12 20 1005.4 - 22.6
25/04:00am 8.0 3.3 7.6 97 0.2 W 22 41 12 22 1004.9 - 22.0
25/03:30am 8.1 3.3 7.5 96 0.3 W 22 37 12 20 1004.6 - 21.6
25/03:00am 8.2 3.5 7.8 97 0.2 W 22 32 12 17 1004.4 1003.7 21.6
25/02:30am 8.0 4.7 7.9 99 0.0 W 15 24 8 13 1004.4 - 21.6
25/02:00am 7.5 3.2 7.2 98 0.1 WNW 19 26 10 14 1004.2 - 21.6
25/01:30am 7.5 4.0 7.1 97 0.2 W 15 26 8 14 1004.0 - 21.6
25/01:00am 7.6 4.4 6.9 95 0.3 W 13 20 7 11 1004.1 - 21.6
25/12:30am 8.1 3.3 7.5 96 0.3 WNW 22 35 12 19 1004.3 - 20.8
25/12:00am 8.6 5.4 8.5 99 0.0 W 15 22 8 12 1004.3 1003.6 19.6
 
Date/Time
CST
Temp
°C
App
Temp
°C
Dew
Point
Rel
Hum
%
Delta-T
°C
Wind Press
QNH
hPa
Press
MSL
hPa
Rain
since 9 am
mm
Dir
 
Spd
km/h
Gust
km/h
Spd
kts
Gust
kts
24/11:30pm 8.0 4.7 7.9 99 0.0 W 15 30 8 16 1004.9 - 18.6
24/11:02pm 8.2 2.4 8.1 99 0.0 NW 28 52 15 28 1004.3 - 17.6
24/11:00pm 8.1 2.7 8.0 99 0.0 NW 26 46 14 25 1004.3 - 17.4
24/10:30pm 8.0 2.6 7.9 99 0.0 NW 26 44 14 24 1005.7 - 12.6
24/10:00pm 8.0 2.4 7.2 95 0.4 NW 26 43 14 23 1006.0 - 8.8
24/09:30pm 8.5 3.5 6.6 88 0.9 NW 22 35 12 19 1006.5 - 7.0
24/09:00pm 9.1 4.0 6.0 81 1.5 NW 22 41 12 22 1007.1 1006.4 6.6
24/08:30pm 8.9 4.2 6.2 83 1.3 NW 20 33 11 18 1007.9 - 6.6
24/08:00pm 8.8 4.4 6.6 86 1.0 WNW 19 28 10 15 1008.4 - 6.6
24/07:30pm 9.1 4.6 6.0 81 1.5 WNW 19 30 10 16 1008.7 - 6.4
24/07:00pm 9.3 4.6 6.0 80 1.5 W 20 32 11 17 1009.0 - 6.4
24/06:30pm 9.2 4.3 7.0 86 1.1 WNW 22 37 12 20 1008.8 - 6.4
24/06:00pm 8.7 5.0 6.5 86 1.0 W 15 22 8 12 1008.8 1008.1 6.4
24/05:30pm 10.5 5.7 4.9 68 2.6 W 19 30 10 16 1008.7 - 6.2
24/05:00pm 11.3 6.2 4.3 62 3.2 W 20 33 11 18 1008.7 - 6.2
24/04:30pm 12.2 5.9 3.7 56 3.9 W 26 43 14 23 1008.6 - 6.2
24/04:00pm 12.6 6.9 5.1 60 3.5 W 24 44 13 24 1008.6 - 6.2
24/03:30pm 12.4 6.7 4.9 60 3.5 W 24 41 13 22 1008.5 - 6.2
24/03:00pm 13.0 7.9 5.9 62 3.4 W 22 37 12 20 1008.6 1007.9 6.2
24/02:30pm 12.3 7.5 5.7 64 3.2 W 20 37 11 20 1008.6 - 6.2
24/02:00pm 11.6 6.0 5.3 65 3.0 W 24 41 13 22 1008.8 - 6.2
24/01:30pm 10.9 6.8 8.0 82 1.4 W 19 28 10 15 1009.0 - 6.2
24/01:00pm 10.1 6.3 9.0 93 0.6 WSW 19 30 10 16 1009.3 - 6.2
24/12:30pm 10.0 7.2 9.9 99 0.1 W 15 26 8 14 1009.5 - 5.8
24/12:00pm 9.6 5.7 9.5 99 0.1 WSW 20 41 11 22 1009.8 1009.1 4.4
24/11:30am 10.5 6.5 10.3 99 0.1 W 22 39 12 21 1009.8 - 2.6
24/11:00am 11.2 7.2 10.3 94 0.5 WSW 22 41 12 22 1009.8 - 0.4
24/10:50am 13.1 7.9 10.3 83 1.5 WNW 28 57 15 31 1009.3 - 0.0
24/10:30am 13.3 9.5 11.0 86 1.2 WNW 22 37 12 20 1009.4 - 0.0
24/10:00am 13.0 9.4 11.7 92 0.7 WNW 22 39 12 21 1009.7 - 0.0
24/09:30am 12.0 8.3 11.5 97 0.3 WNW 22 33 12 18 1010.0 - 0.0
24/09:00am 12.0 7.8 11.1 94 0.5 WNW 24 44 13 24 1010.1 1009.4 0.0
24/08:30am 12.0 8.7 10.9 93 0.6 NW 19 28 10 15 1010.0 - 0.0
24/08:00am 11.8 9.0 11.5 98 0.2 NW 17 28 9 15 1010.0 - 0.0
24/07:30am 11.6 8.8 11.4 99 0.1 NW 17 26 9 14 1010.0 - 0.0
24/07:00am 11.7 9.3 11.5 99 0.1 WNW 15 24 8 13 1010.1 - 0.0
24/06:30am 11.4 10.1 11.2 99 0.1 WNW 9 17 5 9 1010.2 - 0.0
24/06:00am 11.2 9.8 11.0 99 0.1 NW 9 15 5 8 1010.2 1009.5 0.0
24/05:30am 11.3 10.0 11.1 99 0.1 NW 9 11 5 6 1010.1 - 0.0
24/05:00am 11.6 10.3 11.1 97 0.3 NW 9 11 5 6 1010.2 - 0.0
24/04:30am 11.6 10.6 11.1 97 0.3 WNW 7 13 4 7 1010.5 - 0.0
24/04:00am 11.5 10.6 11.2 98 0.2 WNW 7 11 4 6 1010.5 - 0.0
24/03:30am 11.5 10.6 11.2 98 0.2 NW 7 11 4 6 1010.5 - 0.0
24/03:00am 11.6 10.8 11.1 97 0.3 NW 6 9 3 5 1010.7 1010.0 0.0
24/02:30am 11.5 10.5 11.0 97 0.3 WNW 7 11 4 6 1011.2 - 0.0
24/02:00am 11.5 10.1 10.9 96 0.3 WNW 9 13 5 7 1011.6 - 0.0
24/01:30am 11.6 10.2 11.0 96 0.3 WNW 9 11 5 6 1011.9 - 0.0
24/01:00am 11.7 10.4 11.1 96 0.3 WNW 9 13 5 7 1012.2 - 0.0
24/12:30am 11.6 10.5 10.8 95 0.4 WNW 7 9 4 5 1012.3 - 0.0
24/12:00am 11.8 10.8 10.9 94 0.5 W 7 13 4 7 1012.9 1012.2 0.0
 
Date/Time
CST
Temp
°C
App
Temp
°C
Dew
Point
Rel
Hum
%
Delta-T
°C
Wind Press
QNH
hPa
Press
MSL
hPa
Rain
since 9 am
mm
Dir
 
Spd
km/h
Gust
km/h
Spd
kts
Gust
kts
23/11:30pm 11.7 10.5 10.4 92 0.7 WNW 7 9 4 5 1013.0 - 0.0
23/11:00pm 11.7 10.9 10.9 95 0.4 W 6 9 3 5 1013.4 - 0.0
23/10:30pm 12.0 11.2 11.2 95 0.4 W 6 9 3 5 1013.7 - 0.0
23/10:00pm 12.1 11.7 11.2 94 0.5 SW 4 9 2 5 1014.1 - 0.0
23/09:30pm 12.3 11.5 11.0 92 0.7 WSW 6 9 3 5 1014.3 - 0.0
23/09:00pm 12.6 11.7 11.2 91 0.8 SSW 7 9 4 5 1014.4 1013.8 0.0
23/08:30pm 12.7 11.6 10.8 88 1.0 WSW 7 15 4 8 1014.5 - 0.0
23/08:00pm 13.0 11.9 10.7 86 1.2 SW 7 17 4 9 1014.7 - 0.0
23/07:30pm 13.1 11.1 10.3 83 1.5 WSW 11 19 6 10 1014.6 - 0.0
23/07:00pm 13.3 11.3 10.1 81 1.7 W 11 13 6 7 1014.7 - 0.0
23/06:30pm 13.1 11.6 8.4 73 2.4 SW 6 9 3 5 1014.5 - 0.0
23/06:00pm 13.5 13.2 8.6 72 2.5 CALM 0 6 0 3 1014.5 1013.9 0.0
23/05:30pm 14.4 12.7 8.4 67 3.1 SW 7 9 4 5 1014.5 - 0.0
23/05:00pm 15.8 13.1 7.3 57 4.3 WSW 11 15 6 8 1014.4 - 0.0
23/04:30pm 16.7 14.8 7.4 54 4.7 WSW 7 11 4 6 1014.5 - 0.0
23/04:00pm 16.6 14.4 7.8 56 4.5 SW 9 19 5 10 1014.6 - 0.0
23/03:30pm 15.7 13.2 8.4 62 3.8 WSW 11 15 6 8 1014.8 - 0.0
23/03:00pm 15.7 13.6 8.4 62 3.8 WSW 9 13 5 7 1014.9 1014.3 0.0
23/02:30pm 15.7 13.4 9.1 65 3.5 WSW 11 19 6 10 1015.1 - 0.0
23/02:00pm 16.0 13.3 9.0 63 3.7 WSW 13 20 7 11 1015.3 - 0.0
23/01:30pm 16.8 14.7 9.7 63 3.8 WSW 11 17 6 9 1015.6 - 0.0
23/01:00pm 16.7 15.7 7.4 54 4.7 NW 2 7 1 4 1015.8 - 0.0
23/12:30pm 16.5 15.0 6.6 52 5.0 N 4 7 2 4 1016.1 - 0.0
23/12:00pm 16.1 15.8 8.8 62 3.8 CALM 0 0 0 0 1017.0 1016.4 0.0
23/11:30am 15.1 13.7 9.7 70 2.9 NW 7 11 4 6 1018.2 - 0.0
23/11:00am 14.2 13.8 9.8 75 2.3 NNW 2 7 1 4 1018.5 - 0.0
23/10:30am 13.8 13.7 10.8 82 1.6 N 2 7 1 4 1018.5 - 0.0
23/10:00am 13.1 12.3 9.5 79 1.9 ESE 4 7 2 4 1018.9 - 0.0
23/09:30am 11.7 11.6 9.6 87 1.1 CALM 0 0 0 0 1019.2 - 0.0
23/09:00am 10.6 10.7 10.1 97 0.3 CALM 0 0 0 0 1019.1 1018.5 0.0
23/08:30am 9.4 9.3 9.3 99 0.1 CALM 0 0 0 0 1019.2 - 0.0
23/08:00am 8.6 8.3 8.5 99 0.0 CALM 0 0 0 0 1019.4 - 0.0
23/07:30am 7.9 7.4 7.8 99 0.0 CALM 0 0 0 0 1019.1 - 0.0
23/07:00am 7.2 6.5 7.1 99 0.0 CALM 0 0 0 0 1019.3 - 0.0
23/06:30am 6.9 6.2 6.8 99 0.0 CALM 0 0 0 0 1019.2 - 0.0
23/06:00am 6.9 6.1 6.6 98 0.1 CALM 0 0 0 0 1019.0 1018.4 0.0
23/05:30am 6.9 6.1 6.6 98 0.1 CALM 0 0 0 0 1019.0 - 0.0
23/05:00am 7.2 6.5 6.9 98 0.1 CALM 0 0 0 0 1019.1 - 0.0
23/04:30am 7.3 6.5 6.7 96 0.3 CALM 0 0 0 0 1019.0 - 0.0
23/04:00am 7.7 7.0 7.1 96 0.3 CALM 0 0 0 0 1019.2 - 0.0
23/03:30am 8.1 7.5 7.3 95 0.4 CALM 0 0 0 0 1019.1 - 0.0
23/03:00am 8.1 7.5 7.3 95 0.4 CALM 0 0 0 0 1019.6 1019.0 0.0
23/02:30am 8.3 7.7 7.4 94 0.4 CALM 0 0 0 0 1019.9 - 0.0
23/02:00am 8.6 8.0 7.5 93 0.5 CALM 0 0 0 0 1020.1 - 0.0
23/01:30am 8.4 7.8 7.2 92 0.6 CALM 0 0 0 0 1020.7 - 0.0
23/01:00am 8.3 7.6 7.1 92 0.6 CALM 0 0 0 0 1020.8 - 0.0
23/12:30am 8.9 8.3 7.2 89 0.8 CALM 0 0 0 0 1021.0 - 0.0
23/12:00am 9.9 9.3 7.5 85 1.2 CALM 0 6 0 3 1020.8 1020.1 0.0
 
Date/Time
CST
Temp
°C
App
Temp
°C
Dew
Point
Rel
Hum
%
Delta-T
°C
Wind Press
QNH
hPa
Press
MSL
hPa
Rain
since 9 am
mm
Dir
 
Spd
km/h
Gust
km/h
Spd
kts
Gust
kts
22/11:30pm 9.4 7.8 8.2 92 0.6 SE 6 15 3 8 1021.1 - 0.0
22/11:00pm 9.6 8.2 8.7 94 0.4 ESE 6 9 3 5 1021.7 - 0.0
22/10:30pm 9.5 8.1 9.0 97 0.3 SE 6 9 3 5 1021.9 - 0.0
22/10:00pm 9.0 8.6 8.2 95 0.4 CALM 0 0 0 0 1022.3 - 0.0
22/09:30pm 9.3 8.9 8.2 93 0.5 CALM 0 0 0 0 1022.4 - 0.0
22/09:00pm 10.0 9.7 8.8 92 0.6 CALM 0 0 0 0 1022.4 1021.8 0.0
22/08:30pm 10.7 10.1 9.0 89 0.9 SE 2 7 1 4 1022.2 - 0.0
22/08:00pm 10.7 9.2 8.6 87 1.1 S 6 9 3 5 1022.4 - 0.0
22/07:30pm 11.4 9.8 8.8 84 1.3 S 7 11 4 6 1022.1 - 0.0
22/07:00pm 11.7 9.7 8.7 82 1.5 S 9 13 5 7 1022.3 - 0.0
22/06:30pm 12.2 10.3 9.0 81 1.6 S 9 13 5 7 1022.2 - 0.0
22/06:00pm 12.7 10.4 9.0 78 1.9 SSW 11 15 6 8 1022.2 1021.6 0.0
22/05:30pm 13.7 11.0 9.0 73 2.4 SSW 13 19 7 10 1022.1 - 0.0
22/05:00pm 15.4 12.7 9.1 66 3.3 SSW 13 20 7 11 1022.1 - 0.0
22/04:30pm 15.8 13.2 7.8 59 4.1 SSW 11 17 6 9 1021.8 - 0.0
22/04:00pm 17.0 13.9 7.4 53 4.9 SSW 13 17 7 9 1022.1 - 0.0
22/03:30pm 16.9 14.2 7.3 53 4.9 SSW 11 20 6 11 1022.3 - 0.0
22/03:00pm 18.2 14.8 7.6 50 5.5 SSW 15 20 8 11 1022.3 1021.7 0.0
22/02:30pm 16.9 14.2 7.3 53 4.9 SSW 11 17 6 9 1022.4 - 0.0
22/02:00pm 18.0 15.5 8.3 53 5.1 SSW 11 17 6 9 1022.8 - 0.0

Other Formats:

Comma delimited format used in spreadsheet applications
http://www.bom.gov.au/fwo/IDS60801/IDS60801.95667.axf

JavaScript Object Notation format (JSON) in row-major order
http://www.bom.gov.au/fwo/IDS60801/IDS60801.95667.json